sensor_id;sensor_type;location;lat;lon;timestamp;P1;durP1;ratioP1;P2;durP2;ratioP2
19846;SDS011;10084;50.518;8.588;2023-01-28T00:00:32;0.00;;;0.00;;
19846;SDS011;10084;50.518;8.588;2023-01-28T00:02:58;0.10;;;0.10;;
19846;SDS011;10084;50.518;8.588;2023-01-28T00:05:24;0.20;;;0.20;;
19846;SDS011;10084;50.518;8.588;2023-01-28T00:07:50;0.00;;;0.00;;
19846;SDS011;10084;50.518;8.588;2023-01-28T00:10:16;0.00;;;0.00;;
19846;SDS011;10084;50.518;8.588;2023-01-28T00:12:43;0.20;;;0.13;;
19846;SDS011;10084;50.518;8.588;2023-01-28T00:15:08;0.20;;;0.20;;
19846;SDS011;10084;50.518;8.588;2023-01-28T00:17:36;0.27;;;0.27;;
19846;SDS011;10084;50.518;8.588;2023-01-28T00:20:02;0.10;;;0.10;;
19846;SDS011;10084;50.518;8.588;2023-01-28T00:22:28;0.00;;;0.00;;
19846;SDS011;10084;50.518;8.588;2023-01-28T00:24:55;0.93;;;0.30;;
19846;SDS011;10084;50.518;8.588;2023-01-28T00:27:21;0.20;;;0.20;;
19846;SDS011;10084;50.518;8.588;2023-01-28T00:29:47;0.07;;;0.07;;
19846;SDS011;10084;50.518;8.588;2023-01-28T00:32:13;0.00;;;0.00;;
19846;SDS011;10084;50.518;8.588;2023-01-28T00:34:39;0.00;;;0.00;;
19846;SDS011;10084;50.518;8.588;2023-01-28T00:37:06;0.30;;;0.30;;
19846;SDS011;10084;50.518;8.588;2023-01-28T00:39:32;0.07;;;0.07;;
19846;SDS011;10084;50.518;8.588;2023-01-28T00:41:59;0.23;;;0.23;;
19846;SDS011;10084;50.518;8.588;2023-01-28T00:44:25;0.00;;;0.00;;
19846;SDS011;10084;50.518;8.588;2023-01-28T00:46:51;0.30;;;0.30;;
19846;SDS011;10084;50.518;8.588;2023-01-28T00:49:20;0.00;;;0.00;;
19846;SDS011;10084;50.518;8.588;2023-01-28T00:51:46;0.20;;;0.10;;
19846;SDS011;10084;50.518;8.588;2023-01-28T00:54:14;0.10;;;0.10;;
19846;SDS011;10084;50.518;8.588;2023-01-28T00:56:40;0.00;;;0.00;;
19846;SDS011;10084;50.518;8.588;2023-01-28T00:59:06;1.30;;;0.30;;
19846;SDS011;10084;50.518;8.588;2023-01-28T01:01:31;0.13;;;0.13;;
19846;SDS011;10084;50.518;8.588;2023-01-28T01:03:57;0.30;;;0.20;;
19846;SDS011;10084;50.518;8.588;2023-01-28T01:06:31;0.33;;;0.33;;
19846;SDS011;10084;50.518;8.588;2023-01-28T01:09:00;0.10;;;0.10;;
19846;SDS011;10084;50.518;8.588;2023-01-28T01:11:26;0.00;;;0.00;;
19846;SDS011;10084;50.518;8.588;2023-01-28T01:13:53;0.10;;;0.10;;
19846;SDS011;10084;50.518;8.588;2023-01-28T01:16:24;0.00;;;0.00;;
19846;SDS011;10084;50.518;8.588;2023-01-28T01:18:56;0.33;;;0.20;;
19846;SDS011;10084;50.518;8.588;2023-01-28T01:21:24;0.00;;;0.00;;
19846;SDS011;10084;50.518;8.588;2023-01-28T01:23:51;0.33;;;0.30;;
19846;SDS011;10084;50.518;8.588;2023-01-28T01:26:17;0.00;;;0.00;;
19846;SDS011;10084;50.518;8.588;2023-01-28T01:28:43;0.30;;;0.30;;
19846;SDS011;10084;50.518;8.588;2023-01-28T01:31:14;0.00;;;0.00;;
19846;SDS011;10084;50.518;8.588;2023-01-28T01:33:42;0.20;;;0.10;;
19846;SDS011;10084;50.518;8.588;2023-01-28T01:36:09;0.00;;;0.00;;
19846;SDS011;10084;50.518;8.588;2023-01-28T01:38:35;0.00;;;0.00;;
19846;SDS011;10084;50.518;8.588;2023-01-28T01:41:02;0.13;;;0.13;;
19846;SDS011;10084;50.518;8.588;2023-01-28T01:46:21;0.30;;;0.30;;
19846;SDS011;10084;50.518;8.588;2023-01-28T01:48:50;1.70;;;0.23;;
19846;SDS011;10084;50.518;8.588;2023-01-28T01:51:18;0.20;;;0.20;;
19846;SDS011;10084;50.518;8.588;2023-01-28T01:53:50;0.10;;;0.10;;
19846;SDS011;10084;50.518;8.588;2023-01-28T01:56:19;0.30;;;0.30;;
19846;SDS011;10084;50.518;8.588;2023-01-28T01:58:49;0.10;;;0.03;;
19846;SDS011;10084;50.518;8.588;2023-01-28T02:01:21;0.90;;;0.57;;
19846;SDS011;10084;50.518;8.588;2023-01-28T02:04:00;0.10;;;0.10;;
19846;SDS011;10084;50.518;8.588;2023-01-28T02:06:27;0.17;;;0.17;;
19846;SDS011;10084;50.518;8.588;2023-01-28T02:08:55;0.03;;;0.00;;
19846;SDS011;10084;50.518;8.588;2023-01-28T02:11:20;0.33;;;0.13;;
19846;SDS011;10084;50.518;8.588;2023-01-28T02:13:53;0.50;;;0.33;;
19846;SDS011;10084;50.518;8.588;2023-01-28T02:16:22;6.03;;;0.47;;
19846;SDS011;10084;50.518;8.588;2023-01-28T02:18:48;0.50;;;0.50;;
19846;SDS011;10084;50.518;8.588;2023-01-28T02:21:28;0.00;;;0.00;;
19846;SDS011;10084;50.518;8.588;2023-01-28T02:24:11;0.20;;;0.20;;
19846;SDS011;10084;50.518;8.588;2023-01-28T02:30:19;2.53;;;0.13;;
19846;SDS011;10084;50.518;8.588;2023-01-28T02:33:03;0.20;;;0.20;;
19846;SDS011;10084;50.518;8.588;2023-01-28T02:35:47;0.23;;;0.23;;
19846;SDS011;10084;50.518;8.588;2023-01-28T02:38:25;0.17;;;0.10;;
19846;SDS011;10084;50.518;8.588;2023-01-28T02:40:58;0.30;;;0.30;;
19846;SDS011;10084;50.518;8.588;2023-01-28T02:46:02;0.50;;;0.50;;
19846;SDS011;10084;50.518;8.588;2023-01-28T02:49:17;0.40;;;0.20;;
19846;SDS011;10084;50.518;8.588;2023-01-28T02:55:20;0.03;;;0.03;;
19846;SDS011;10084;50.518;8.588;2023-01-28T02:58:04;0.00;;;0.00;;
19846;SDS011;10084;50.518;8.588;2023-01-28T03:06:49;0.00;;;0.00;;
19846;SDS011;10084;50.518;8.588;2023-01-28T03:09:17;0.17;;;0.10;;
19846;SDS011;10084;50.518;8.588;2023-01-28T03:12:30;0.20;;;0.13;;
19846;SDS011;10084;50.518;8.588;2023-01-28T03:15:09;0.10;;;0.10;;
19846;SDS011;10084;50.518;8.588;2023-01-28T03:18:00;0.00;;;0.00;;
19846;SDS011;10084;50.518;8.588;2023-01-28T03:24:25;0.70;;;0.60;;
19846;SDS011;10084;50.518;8.588;2023-01-28T03:27:21;0.00;;;0.00;;
19846;SDS011;10084;50.518;8.588;2023-01-28T03:30:19;0.10;;;0.10;;
19846;SDS011;10084;50.518;8.588;2023-01-28T03:33:12;0.40;;;0.10;;
19846;SDS011;10084;50.518;8.588;2023-01-28T03:35:59;0.10;;;0.10;;
19846;SDS011;10084;50.518;8.588;2023-01-28T03:38:45;0.60;;;0.37;;
19846;SDS011;10084;50.518;8.588;2023-01-28T03:41:19;0.00;;;0.00;;
19846;SDS011;10084;50.518;8.588;2023-01-28T03:43:46;0.93;;;0.30;;
19846;SDS011;10084;50.518;8.588;2023-01-28T03:46:12;0.20;;;0.20;;
19846;SDS011;10084;50.518;8.588;2023-01-28T03:48:38;0.13;;;0.13;;
19846;SDS011;10084;50.518;8.588;2023-01-28T03:51:06;0.20;;;0.07;;
19846;SDS011;10084;50.518;8.588;2023-01-28T03:53:32;0.27;;;0.27;;
19846;SDS011;10084;50.518;8.588;2023-01-28T03:55:58;0.10;;;0.10;;
19846;SDS011;10084;50.518;8.588;2023-01-28T03:58:24;0.00;;;0.00;;
19846;SDS011;10084;50.518;8.588;2023-01-28T04:03:44;0.10;;;0.10;;
19846;SDS011;10084;50.518;8.588;2023-01-28T04:06:13;0.00;;;0.00;;
19846;SDS011;10084;50.518;8.588;2023-01-28T04:08:58;0.27;;;0.27;;
19846;SDS011;10084;50.518;8.588;2023-01-28T04:11:47;0.50;;;0.50;;
19846;SDS011;10084;50.518;8.588;2023-01-28T04:14:20;0.30;;;0.30;;
19846;SDS011;10084;50.518;8.588;2023-01-28T04:16:50;0.00;;;0.00;;
19846;SDS011;10084;50.518;8.588;2023-01-28T04:19:19;0.10;;;0.10;;
19846;SDS011;10084;50.518;8.588;2023-01-28T04:21:46;0.00;;;0.00;;
19846;SDS011;10084;50.518;8.588;2023-01-28T04:24:13;0.03;;;0.03;;
19846;SDS011;10084;50.518;8.588;2023-01-28T04:26:40;0.10;;;0.10;;
19846;SDS011;10084;50.518;8.588;2023-01-28T04:29:06;1.43;;;0.33;;
19846;SDS011;10084;50.518;8.588;2023-01-28T04:31:34;0.00;;;0.00;;
19846;SDS011;10084;50.518;8.588;2023-01-28T04:34:20;0.23;;;0.10;;
19846;SDS011;10084;50.518;8.588;2023-01-28T04:36:56;4.13;;;0.20;;
19846;SDS011;10084;50.518;8.588;2023-01-28T04:39:30;0.70;;;0.70;;
19846;SDS011;10084;50.518;8.588;2023-01-28T04:42:08;0.20;;;0.20;;
19846;SDS011;10084;50.518;8.588;2023-01-28T04:44:50;0.00;;;0.00;;
19846;SDS011;10084;50.518;8.588;2023-01-28T04:47:44;0.10;;;0.10;;
19846;SDS011;10084;50.518;8.588;2023-01-28T04:50:29;0.20;;;0.20;;
19846;SDS011;10084;50.518;8.588;2023-01-28T04:53:04;0.20;;;0.20;;
19846;SDS011;10084;50.518;8.588;2023-01-28T04:55:51;0.10;;;0.10;;
19846;SDS011;10084;50.518;8.588;2023-01-28T04:58:19;0.30;;;0.17;;
19846;SDS011;10084;50.518;8.588;2023-01-28T05:00:50;0.10;;;0.10;;
19846;SDS011;10084;50.518;8.588;2023-01-28T05:03:23;0.00;;;0.00;;
19846;SDS011;10084;50.518;8.588;2023-01-28T05:05:49;0.17;;;0.10;;
19846;SDS011;10084;50.518;8.588;2023-01-28T05:08:34;0.10;;;0.10;;
19846;SDS011;10084;50.518;8.588;2023-01-28T05:11:00;0.53;;;0.53;;
19846;SDS011;10084;50.518;8.588;2023-01-28T05:13:25;0.27;;;0.27;;
19846;SDS011;10084;50.518;8.588;2023-01-28T05:15:51;0.20;;;0.20;;
19846;SDS011;10084;50.518;8.588;2023-01-28T05:18:18;0.10;;;0.10;;
19846;SDS011;10084;50.518;8.588;2023-01-28T05:20:52;0.00;;;0.00;;
19846;SDS011;10084;50.518;8.588;2023-01-28T05:23:17;0.43;;;0.10;;
19846;SDS011;10084;50.518;8.588;2023-01-28T05:25:53;0.83;;;0.83;;
19846;SDS011;10084;50.518;8.588;2023-01-28T05:28:19;0.17;;;0.03;;
19846;SDS011;10084;50.518;8.588;2023-01-28T05:30:45;0.10;;;0.10;;
19846;SDS011;10084;50.518;8.588;2023-01-28T05:33:11;0.00;;;0.00;;
19846;SDS011;10084;50.518;8.588;2023-01-28T05:35:36;0.20;;;0.20;;
19846;SDS011;10084;50.518;8.588;2023-01-28T05:38:02;0.10;;;0.10;;
19846;SDS011;10084;50.518;8.588;2023-01-28T05:40:28;0.53;;;0.53;;
19846;SDS011;10084;50.518;8.588;2023-01-28T05:42:55;0.20;;;0.20;;
19846;SDS011;10084;50.518;8.588;2023-01-28T05:45:28;0.60;;;0.60;;
19846;SDS011;10084;50.518;8.588;2023-01-28T05:48:19;0.53;;;0.53;;
19846;SDS011;10084;50.518;8.588;2023-01-28T05:51:05;0.00;;;0.00;;
19846;SDS011;10084;50.518;8.588;2023-01-28T05:53:36;0.00;;;0.00;;
19846;SDS011;10084;50.518;8.588;2023-01-28T05:56:02;0.40;;;0.27;;
19846;SDS011;10084;50.518;8.588;2023-01-28T05:58:30;0.47;;;0.47;;
19846;SDS011;10084;50.518;8.588;2023-01-28T06:00:59;0.27;;;0.27;;
19846;SDS011;10084;50.518;8.588;2023-01-28T06:03:32;0.43;;;0.40;;
19846;SDS011;10084;50.518;8.588;2023-01-28T06:05:58;0.00;;;0.00;;
19846;SDS011;10084;50.518;8.588;2023-01-28T06:08:24;0.10;;;0.10;;
19846;SDS011;10084;50.518;8.588;2023-01-28T06:10:49;0.40;;;0.20;;
19846;SDS011;10084;50.518;8.588;2023-01-28T06:13:15;0.00;;;0.00;;
19846;SDS011;10084;50.518;8.588;2023-01-28T06:15:59;0.67;;;0.57;;
19846;SDS011;10084;50.518;8.588;2023-01-28T06:18:57;0.00;;;0.00;;
19846;SDS011;10084;50.518;8.588;2023-01-28T06:21:22;0.53;;;0.33;;
19846;SDS011;10084;50.518;8.588;2023-01-28T06:23:48;0.20;;;0.20;;
19846;SDS011;10084;50.518;8.588;2023-01-28T06:26:14;0.20;;;0.20;;
19846;SDS011;10084;50.518;8.588;2023-01-28T06:28:42;0.30;;;0.07;;
19846;SDS011;10084;50.518;8.588;2023-01-28T06:31:08;8.17;;;0.23;;
19846;SDS011;10084;50.518;8.588;2023-01-28T06:33:34;0.13;;;0.10;;
19846;SDS011;10084;50.518;8.588;2023-01-28T06:36:03;0.00;;;0.00;;
19846;SDS011;10084;50.518;8.588;2023-01-28T06:38:30;0.30;;;0.30;;
19846;SDS011;10084;50.518;8.588;2023-01-28T06:40:56;0.30;;;0.30;;
19846;SDS011;10084;50.518;8.588;2023-01-28T06:43:22;0.00;;;0.00;;
19846;SDS011;10084;50.518;8.588;2023-01-28T06:45:52;0.00;;;0.00;;
19846;SDS011;10084;50.518;8.588;2023-01-28T06:48:19;0.00;;;0.00;;
19846;SDS011;10084;50.518;8.588;2023-01-28T06:50:46;0.00;;;0.00;;
19846;SDS011;10084;50.518;8.588;2023-01-28T06:53:12;3.50;;;0.37;;
19846;SDS011;10084;50.518;8.588;2023-01-28T06:55:38;0.07;;;0.07;;
19846;SDS011;10084;50.518;8.588;2023-01-28T06:58:04;0.10;;;0.10;;
19846;SDS011;10084;50.518;8.588;2023-01-28T07:00:30;0.77;;;0.37;;
19846;SDS011;10084;50.518;8.588;2023-01-28T07:02:55;0.00;;;0.00;;
19846;SDS011;10084;50.518;8.588;2023-01-28T07:05:21;0.20;;;0.20;;
19846;SDS011;10084;50.518;8.588;2023-01-28T07:07:47;3.07;;;0.43;;
19846;SDS011;10084;50.518;8.588;2023-01-28T07:10:13;0.67;;;0.67;;
19846;SDS011;10084;50.518;8.588;2023-01-28T07:12:39;0.27;;;0.10;;
19846;SDS011;10084;50.518;8.588;2023-01-28T07:15:04;0.47;;;0.10;;
19846;SDS011;10084;50.518;8.588;2023-01-28T07:17:31;0.00;;;0.00;;
19846;SDS011;10084;50.518;8.588;2023-01-28T07:19:56;0.10;;;0.10;;
19846;SDS011;10084;50.518;8.588;2023-01-28T07:22:22;0.30;;;0.30;;
19846;SDS011;10084;50.518;8.588;2023-01-28T07:24:48;0.10;;;0.10;;
19846;SDS011;10084;50.518;8.588;2023-01-28T07:27:13;0.10;;;0.10;;
19846;SDS011;10084;50.518;8.588;2023-01-28T07:29:39;0.27;;;0.27;;
19846;SDS011;10084;50.518;8.588;2023-01-28T07:32:05;5.93;;;0.50;;
19846;SDS011;10084;50.518;8.588;2023-01-28T07:34:31;0.00;;;0.00;;
19846;SDS011;10084;50.518;8.588;2023-01-28T07:36:58;0.10;;;0.10;;
19846;SDS011;10084;50.518;8.588;2023-01-28T07:39:24;0.30;;;0.30;;
19846;SDS011;10084;50.518;8.588;2023-01-28T07:41:49;0.10;;;0.10;;
19846;SDS011;10084;50.518;8.588;2023-01-28T07:44:30;0.30;;;0.10;;
19846;SDS011;10084;50.518;8.588;2023-01-28T07:46:56;0.00;;;0.00;;
19846;SDS011;10084;50.518;8.588;2023-01-28T07:49:22;0.00;;;0.00;;
19846;SDS011;10084;50.518;8.588;2023-01-28T07:51:47;0.30;;;0.30;;
19846;SDS011;10084;50.518;8.588;2023-01-28T07:54:15;0.23;;;0.23;;
19846;SDS011;10084;50.518;8.588;2023-01-28T07:56:41;0.63;;;0.40;;
19846;SDS011;10084;50.518;8.588;2023-01-28T07:59:06;0.20;;;0.20;;
19846;SDS011;10084;50.518;8.588;2023-01-28T08:01:32;0.33;;;0.33;;
19846;SDS011;10084;50.518;8.588;2023-01-28T08:03:58;0.33;;;0.33;;
19846;SDS011;10084;50.518;8.588;2023-01-28T08:06:23;1.73;;;1.30;;
19846;SDS011;10084;50.518;8.588;2023-01-28T08:08:49;11.23;;;3.40;;
19846;SDS011;10084;50.518;8.588;2023-01-28T08:11:15;8.40;;;1.70;;
19846;SDS011;10084;50.518;8.588;2023-01-28T08:13:41;0.77;;;0.77;;
19846;SDS011;10084;50.518;8.588;2023-01-28T08:16:06;1.27;;;1.17;;
19846;SDS011;10084;50.518;8.588;2023-01-28T08:18:32;4.37;;;1.47;;
19846;SDS011;10084;50.518;8.588;2023-01-28T08:21:01;2.33;;;2.23;;
19846;SDS011;10084;50.518;8.588;2023-01-28T08:23:27;19.30;;;6.00;;
19846;SDS011;10084;50.518;8.588;2023-01-28T08:25:53;2.10;;;1.93;;
19846;SDS011;10084;50.518;8.588;2023-01-28T08:28:19;9.60;;;5.00;;
19846;SDS011;10084;50.518;8.588;2023-01-28T08:30:45;3.80;;;3.50;;
19846;SDS011;10084;50.518;8.588;2023-01-28T08:33:12;2.60;;;1.93;;
19846;SDS011;10084;50.518;8.588;2023-01-28T08:35:39;8.30;;;2.50;;
19846;SDS011;10084;50.518;8.588;2023-01-28T08:38:06;1.60;;;1.50;;
19846;SDS011;10084;50.518;8.588;2023-01-28T08:40:32;7.87;;;3.33;;
19846;SDS011;10084;50.518;8.588;2023-01-28T08:42:59;2.87;;;2.57;;
19846;SDS011;10084;50.518;8.588;2023-01-28T08:45:25;2.93;;;1.83;;
19846;SDS011;10084;50.518;8.588;2023-01-28T08:47:52;0.37;;;0.33;;
19846;SDS011;10084;50.518;8.588;2023-01-28T08:50:23;0.80;;;0.80;;
19846;SDS011;10084;50.518;8.588;2023-01-28T08:55:41;0.50;;;0.43;;
19846;SDS011;10084;50.518;8.588;2023-01-28T08:58:09;0.50;;;0.50;;
19846;SDS011;10084;50.518;8.588;2023-01-28T09:00:36;0.00;;;0.00;;
19846;SDS011;10084;50.518;8.588;2023-01-28T09:03:02;0.10;;;0.10;;
19846;SDS011;10084;50.518;8.588;2023-01-28T09:05:28;3.63;;;0.47;;
19846;SDS011;10084;50.518;8.588;2023-01-28T09:07:56;0.30;;;0.30;;
19846;SDS011;10084;50.518;8.588;2023-01-28T09:10:24;0.30;;;0.20;;
19846;SDS011;10084;50.518;8.588;2023-01-28T09:12:50;0.10;;;0.10;;
19846;SDS011;10084;50.518;8.588;2023-01-28T09:15:16;0.10;;;0.10;;
19846;SDS011;10084;50.518;8.588;2023-01-28T09:17:41;0.50;;;0.20;;
19846;SDS011;10084;50.518;8.588;2023-01-28T09:20:07;0.40;;;0.40;;
19846;SDS011;10084;50.518;8.588;2023-01-28T09:22:34;0.10;;;0.10;;
19846;SDS011;10084;50.518;8.588;2023-01-28T09:25:00;0.10;;;0.00;;
19846;SDS011;10084;50.518;8.588;2023-01-28T09:27:25;0.10;;;0.10;;
19846;SDS011;10084;50.518;8.588;2023-01-28T09:29:51;0.00;;;0.00;;
19846;SDS011;10084;50.518;8.588;2023-01-28T09:32:17;0.00;;;0.00;;
19846;SDS011;10084;50.518;8.588;2023-01-28T09:34:42;0.00;;;0.00;;
19846;SDS011;10084;50.518;8.588;2023-01-28T09:37:09;0.20;;;0.20;;
19846;SDS011;10084;50.518;8.588;2023-01-28T09:39:35;0.00;;;0.00;;
19846;SDS011;10084;50.518;8.588;2023-01-28T09:42:09;0.00;;;0.00;;
19846;SDS011;10084;50.518;8.588;2023-01-28T09:47:39;0.00;;;0.00;;
19846;SDS011;10084;50.518;8.588;2023-01-28T09:50:10;0.00;;;0.00;;
19846;SDS011;10084;50.518;8.588;2023-01-28T09:52:41;0.20;;;0.10;;
19846;SDS011;10084;50.518;8.588;2023-01-28T09:57:50;0.00;;;0.00;;
19846;SDS011;10084;50.518;8.588;2023-01-28T10:00:18;0.10;;;0.10;;
19846;SDS011;10084;50.518;8.588;2023-01-28T10:02:59;0.00;;;0.00;;
19846;SDS011;10084;50.518;8.588;2023-01-28T10:06:12;0.00;;;0.00;;
19846;SDS011;10084;50.518;8.588;2023-01-28T10:15:33;0.10;;;0.10;;
19846;SDS011;10084;50.518;8.588;2023-01-28T10:18:28;0.10;;;0.10;;
19846;SDS011;10084;50.518;8.588;2023-01-28T10:21:11;0.10;;;0.10;;
19846;SDS011;10084;50.518;8.588;2023-01-28T10:23:57;0.00;;;0.00;;
19846;SDS011;10084;50.518;8.588;2023-01-28T10:26:44;0.03;;;0.03;;
19846;SDS011;10084;50.518;8.588;2023-01-28T10:31:53;0.00;;;0.00;;
19846;SDS011;10084;50.518;8.588;2023-01-28T10:34:55;0.10;;;0.10;;
19846;SDS011;10084;50.518;8.588;2023-01-28T10:37:23;0.00;;;0.00;;
19846;SDS011;10084;50.518;8.588;2023-01-28T10:39:50;0.00;;;0.00;;
19846;SDS011;10084;50.518;8.588;2023-01-28T10:50:32;0.20;;;0.20;;
19846;SDS011;10084;50.518;8.588;2023-01-28T10:53:00;0.00;;;0.00;;
19846;SDS011;10084;50.518;8.588;2023-01-28T10:55:28;0.10;;;0.10;;
19846;SDS011;10084;50.518;8.588;2023-01-28T10:57:58;0.00;;;0.00;;
19846;SDS011;10084;50.518;8.588;2023-01-28T11:00:31;0.00;;;0.00;;
19846;SDS011;10084;50.518;8.588;2023-01-28T11:03:00;0.07;;;0.07;;
19846;SDS011;10084;50.518;8.588;2023-01-28T11:05:27;0.40;;;0.40;;
19846;SDS011;10084;50.518;8.588;2023-01-28T11:08:11;0.17;;;0.17;;
19846;SDS011;10084;50.518;8.588;2023-01-28T11:10:39;0.67;;;0.10;;
19846;SDS011;10084;50.518;8.588;2023-01-28T11:13:13;0.00;;;0.00;;
19846;SDS011;10084;50.518;8.588;2023-01-28T11:16:05;0.00;;;0.00;;
19846;SDS011;10084;50.518;8.588;2023-01-28T11:18:39;0.10;;;0.10;;
19846;SDS011;10084;50.518;8.588;2023-01-28T11:21:20;0.10;;;0.10;;
19846;SDS011;10084;50.518;8.588;2023-01-28T11:23:56;0.10;;;0.10;;
19846;SDS011;10084;50.518;8.588;2023-01-28T11:26:33;0.00;;;0.00;;
19846;SDS011;10084;50.518;8.588;2023-01-28T11:29:02;0.03;;;0.03;;
19846;SDS011;10084;50.518;8.588;2023-01-28T11:31:29;0.83;;;0.10;;
19846;SDS011;10084;50.518;8.588;2023-01-28T11:34:07;0.20;;;0.20;;
19846;SDS011;10084;50.518;8.588;2023-01-28T11:36:32;0.50;;;0.50;;
19846;SDS011;10084;50.518;8.588;2023-01-28T11:39:00;0.20;;;0.20;;
19846;SDS011;10084;50.518;8.588;2023-01-28T11:41:42;0.07;;;0.07;;
19846;SDS011;10084;50.518;8.588;2023-01-28T11:44:18;0.00;;;0.00;;
19846;SDS011;10084;50.518;8.588;2023-01-28T11:49:21;0.20;;;0.20;;
19846;SDS011;10084;50.518;8.588;2023-01-28T12:06:21;0.00;;;0.00;;
19846;SDS011;10084;50.518;8.588;2023-01-28T12:11:45;0.30;;;0.30;;
19846;SDS011;10084;50.518;8.588;2023-01-28T12:23:14;2.97;;;0.37;;
19846;SDS011;10084;50.518;8.588;2023-01-28T12:26:09;0.30;;;0.23;;
19846;SDS011;10084;50.518;8.588;2023-01-28T12:37:03;0.00;;;0.00;;
19846;SDS011;10084;50.518;8.588;2023-01-28T12:45:11;0.00;;;0.00;;
19846;SDS011;10084;50.518;8.588;2023-01-28T12:48:03;0.40;;;0.40;;
19846;SDS011;10084;50.518;8.588;2023-01-28T12:50:45;0.47;;;0.20;;
19846;SDS011;10084;50.518;8.588;2023-01-28T12:53:19;0.00;;;0.00;;
19846;SDS011;10084;50.518;8.588;2023-01-28T12:55:52;0.10;;;0.10;;
19846;SDS011;10084;50.518;8.588;2023-01-28T12:58:47;0.07;;;0.07;;
19846;SDS011;10084;50.518;8.588;2023-01-28T13:04:05;0.33;;;0.33;;
19846;SDS011;10084;50.518;8.588;2023-01-28T13:06:46;0.00;;;0.00;;
19846;SDS011;10084;50.518;8.588;2023-01-28T13:09:19;0.03;;;0.00;;
19846;SDS011;10084;50.518;8.588;2023-01-28T13:11:48;0.00;;;0.00;;
19846;SDS011;10084;50.518;8.588;2023-01-28T13:14:17;0.00;;;0.00;;
19846;SDS011;10084;50.518;8.588;2023-01-28T13:16:46;0.00;;;0.00;;
19846;SDS011;10084;50.518;8.588;2023-01-28T13:21:43;0.10;;;0.10;;
19846;SDS011;10084;50.518;8.588;2023-01-28T13:26:42;0.03;;;0.03;;
19846;SDS011;10084;50.518;8.588;2023-01-28T13:31:39;0.00;;;0.00;;
19846;SDS011;10084;50.518;8.588;2023-01-28T13:34:06;0.10;;;0.10;;
19846;SDS011;10084;50.518;8.588;2023-01-28T13:36:43;0.50;;;0.50;;
19846;SDS011;10084;50.518;8.588;2023-01-28T13:41:40;0.10;;;0.10;;
19846;SDS011;10084;50.518;8.588;2023-01-28T13:47:11;0.07;;;0.07;;
19846;SDS011;10084;50.518;8.588;2023-01-28T13:49:39;0.20;;;0.20;;
19846;SDS011;10084;50.518;8.588;2023-01-28T13:52:25;0.30;;;0.13;;
19846;SDS011;10084;50.518;8.588;2023-01-28T14:03:16;0.07;;;0.07;;
19846;SDS011;10084;50.518;8.588;2023-01-28T14:06:18;0.13;;;0.07;;
19846;SDS011;10084;50.518;8.588;2023-01-28T14:09:04;0.63;;;0.50;;
19846;SDS011;10084;50.518;8.588;2023-01-28T14:11:46;0.07;;;0.07;;
19846;SDS011;10084;50.518;8.588;2023-01-28T14:15:03;1.00;;;0.40;;
19846;SDS011;10084;50.518;8.588;2023-01-28T14:17:51;0.50;;;0.47;;
19846;SDS011;10084;50.518;8.588;2023-01-28T14:20:22;0.60;;;0.50;;
19846;SDS011;10084;50.518;8.588;2023-01-28T14:23:00;1.00;;;0.30;;
19846;SDS011;10084;50.518;8.588;2023-01-28T14:25:30;0.33;;;0.20;;
19846;SDS011;10084;50.518;8.588;2023-01-28T14:28:01;0.00;;;0.00;;
19846;SDS011;10084;50.518;8.588;2023-01-28T14:30:39;0.00;;;0.00;;
19846;SDS011;10084;50.518;8.588;2023-01-28T14:33:07;0.00;;;0.00;;
19846;SDS011;10084;50.518;8.588;2023-01-28T14:35:36;0.00;;;0.00;;
19846;SDS011;10084;50.518;8.588;2023-01-28T14:38:08;0.10;;;0.10;;
19846;SDS011;10084;50.518;8.588;2023-01-28T14:40:39;17.00;;;0.27;;
19846;SDS011;10084;50.518;8.588;2023-01-28T14:43:06;0.10;;;0.10;;
19846;SDS011;10084;50.518;8.588;2023-01-28T14:45:44;0.17;;;0.17;;
19846;SDS011;10084;50.518;8.588;2023-01-28T14:51:08;0.67;;;0.67;;
19846;SDS011;10084;50.518;8.588;2023-01-28T14:54:03;0.23;;;0.23;;
19846;SDS011;10084;50.518;8.588;2023-01-28T14:59:31;0.33;;;0.20;;
19846;SDS011;10084;50.518;8.588;2023-01-28T15:02:09;0.13;;;0.13;;
19846;SDS011;10084;50.518;8.588;2023-01-28T15:04:42;0.23;;;0.23;;
19846;SDS011;10084;50.518;8.588;2023-01-28T15:07:16;0.20;;;0.20;;
19846;SDS011;10084;50.518;8.588;2023-01-28T15:09:43;0.40;;;0.30;;
19846;SDS011;10084;50.518;8.588;2023-01-28T15:12:09;0.10;;;0.10;;
19846;SDS011;10084;50.518;8.588;2023-01-28T15:14:36;0.10;;;0.10;;
19846;SDS011;10084;50.518;8.588;2023-01-28T15:17:03;0.10;;;0.10;;
19846;SDS011;10084;50.518;8.588;2023-01-28T15:19:30;0.33;;;0.33;;
19846;SDS011;10084;50.518;8.588;2023-01-28T15:21:59;0.00;;;0.00;;
19846;SDS011;10084;50.518;8.588;2023-01-28T15:24:26;0.00;;;0.00;;
19846;SDS011;10084;50.518;8.588;2023-01-28T15:26:52;3.30;;;0.40;;
19846;SDS011;10084;50.518;8.588;2023-01-28T15:29:29;0.10;;;0.10;;
19846;SDS011;10084;50.518;8.588;2023-01-28T15:31:56;0.27;;;0.27;;
19846;SDS011;10084;50.518;8.588;2023-01-28T15:34:22;0.10;;;0.10;;
19846;SDS011;10084;50.518;8.588;2023-01-28T15:36:54;0.93;;;0.53;;
19846;SDS011;10084;50.518;8.588;2023-01-28T15:39:21;0.03;;;0.03;;
19846;SDS011;10084;50.518;8.588;2023-01-28T15:41:54;0.03;;;0.03;;
19846;SDS011;10084;50.518;8.588;2023-01-28T15:44:30;0.23;;;0.20;;
19846;SDS011;10084;50.518;8.588;2023-01-28T15:47:02;0.10;;;0.10;;
19846;SDS011;10084;50.518;8.588;2023-01-28T15:49:40;0.07;;;0.07;;
19846;SDS011;10084;50.518;8.588;2023-01-28T15:52:08;0.30;;;0.30;;
19846;SDS011;10084;50.518;8.588;2023-01-28T15:54:41;0.03;;;0.03;;
19846;SDS011;10084;50.518;8.588;2023-01-28T15:57:17;0.10;;;0.10;;
19846;SDS011;10084;50.518;8.588;2023-01-28T15:59:44;3.40;;;1.00;;
19846;SDS011;10084;50.518;8.588;2023-01-28T16:02:16;0.00;;;0.00;;
19846;SDS011;10084;50.518;8.588;2023-01-28T16:04:42;0.10;;;0.10;;
19846;SDS011;10084;50.518;8.588;2023-01-28T16:07:19;0.40;;;0.40;;
19846;SDS011;10084;50.518;8.588;2023-01-28T16:09:45;0.10;;;0.10;;
19846;SDS011;10084;50.518;8.588;2023-01-28T16:12:17;0.33;;;0.33;;
19846;SDS011;10084;50.518;8.588;2023-01-28T16:17:26;0.10;;;0.10;;
19846;SDS011;10084;50.518;8.588;2023-01-28T16:20:05;0.50;;;0.40;;
19846;SDS011;10084;50.518;8.588;2023-01-28T16:22:38;0.50;;;0.50;;
19846;SDS011;10084;50.518;8.588;2023-01-28T16:25:26;0.17;;;0.17;;
19846;SDS011;10084;50.518;8.588;2023-01-28T16:27:56;0.30;;;0.13;;
19846;SDS011;10084;50.518;8.588;2023-01-28T16:30:24;0.10;;;0.10;;
19846;SDS011;10084;50.518;8.588;2023-01-28T16:32:51;0.50;;;0.40;;
19846;SDS011;10084;50.518;8.588;2023-01-28T16:35:18;0.20;;;0.10;;
19846;SDS011;10084;50.518;8.588;2023-01-28T16:37:49;0.00;;;0.00;;
19846;SDS011;10084;50.518;8.588;2023-01-28T16:40:16;0.10;;;0.10;;
19846;SDS011;10084;50.518;8.588;2023-01-28T16:42:45;7.03;;;0.23;;
19846;SDS011;10084;50.518;8.588;2023-01-28T16:45:16;0.00;;;0.00;;
19846;SDS011;10084;50.518;8.588;2023-01-28T16:47:43;0.30;;;0.30;;
19846;SDS011;10084;50.518;8.588;2023-01-28T16:50:12;0.00;;;0.00;;
19846;SDS011;10084;50.518;8.588;2023-01-28T16:52:40;0.00;;;0.00;;
19846;SDS011;10084;50.518;8.588;2023-01-28T16:55:13;0.17;;;0.10;;
19846;SDS011;10084;50.518;8.588;2023-01-28T16:57:41;0.53;;;0.53;;
19846;SDS011;10084;50.518;8.588;2023-01-28T17:00:18;0.00;;;0.00;;
19846;SDS011;10084;50.518;8.588;2023-01-28T17:02:51;0.37;;;0.37;;
19846;SDS011;10084;50.518;8.588;2023-01-28T17:05:18;2.07;;;0.20;;
19846;SDS011;10084;50.518;8.588;2023-01-28T17:07:46;0.13;;;0.13;;
19846;SDS011;10084;50.518;8.588;2023-01-28T17:10:15;0.40;;;0.40;;
19846;SDS011;10084;50.518;8.588;2023-01-28T17:12:42;0.10;;;0.10;;
19846;SDS011;10084;50.518;8.588;2023-01-28T17:15:08;0.10;;;0.10;;
19846;SDS011;10084;50.518;8.588;2023-01-28T17:17:34;0.00;;;0.00;;
19846;SDS011;10084;50.518;8.588;2023-01-28T17:20:00;0.00;;;0.00;;